Time;durP1;ratioP1;P1;durP2;ratioP2;P2;SDS_P1;SDS_P2;PMS_P1;PMS_P2;Temp;Humidity;BMP_temperature;BMP_pressure;BME280_temperature;BME280_humidity;BME280_pressure;Samples;Min_cycle;Max_cycle;Signal;HPM_P1;HPM_P2
2022/04/02 00:00:53;;;;;;;;;;;0.10;99.90;;;-1.05;100.00;96004.91;5013247;28;19925;-43
2022/04/02 00:03:19;;;;;;;;;;;0.10;99.90;;;-1.02;100.00;95998.84;5012474;28;19927;-46
2022/04/02 00:05:45;;;;;;;;;;;0.10;99.90;;;-1.02;100.00;95999.69;5015904;28;19925;-44
2022/04/02 00:08:11;;;;;;;;;;;0.10;99.90;;;-1.04;100.00;95998.88;5015533;28;19967;-47
2022/04/02 00:10:37;;;;;;;;;;;0.10;99.90;;;-1.05;100.00;96002.31;5010999;28;19922;-45
2022/04/02 00:13:02;;;;;;;;;;;0.10;99.90;;;-1.06;100.00;95992.88;5017718;28;19921;-41
2022/04/02 00:15:28;;;;;;;;;;;0.10;99.90;;;-1.22;100.00;95962.88;5014753;28;19920;-44
2022/04/02 00:17:54;;;;;;;;;;;0.10;99.90;;;-1.11;100.00;95980.84;5014420;28;19920;-42
2022/04/02 00:20:19;;;;;;;;;;;0.10;99.90;;;-1.03;100.00;95995.38;5012098;28;19952;-44
2022/04/02 00:25:30;;;;;;;;;;;0.10;99.90;;;-1.00;100.00;95997.09;5011697;28;19960;-43
2022/04/02 00:27:55;;;;;;;;;;;0.10;99.90;;;-1.10;100.00;95987.75;5014380;28;19925;-42
2022/04/02 00:30:21;;;;;;;;;;;0.10;99.90;;;-1.04;100.00;96001.47;5012141;28;20321;-44
2022/04/02 00:32:47;;;;;;;;;;;0.10;99.90;;;-1.06;100.00;96003.22;5017272;28;20018;-43
2022/04/02 00:35:14;;;;;;;;;;;0.10;99.90;;;-1.14;100.00;95967.97;5015103;28;19917;-45
2022/04/02 00:37:40;;;;;;;;;;;0.10;99.90;;;-0.98;100.00;96001.34;5012679;28;20675;-41
2022/04/02 00:40:07;;;;;;;;;;;0.10;99.90;;;-1.03;100.00;95985.03;5014477;28;19929;-44
2022/04/02 00:42:33;;;;;;;;;;;0.10;99.90;;;-1.01;100.00;95990.19;5014684;28;20310;-43
2022/04/02 00:44:58;;;;;;;;;;;0.10;99.90;;;-0.94;100.00;95999.59;5017205;28;19928;-44
2022/04/02 00:47:24;;;;;;;;;;;0.10;99.90;;;-1.00;100.00;95991.91;5012536;28;19992;-46
2022/04/02 00:49:51;;;;;;;;;;;0.20;99.90;;;-0.92;100.00;96003.00;5014957;28;19948;-42
2022/04/02 00:52:17;;;;;;;;;;;0.20;99.90;;;-0.94;100.00;95989.22;5012862;28;19964;-46
2022/04/02 00:54:43;;;;;;;;;;;0.20;99.90;;;-0.95;100.00;95992.72;5015211;28;19921;-46
2022/04/02 00:57:09;;;;;;;;;;;0.20;99.90;;;-0.92;100.00;95994.38;5014195;28;19924;-45
2022/04/02 00:59:35;;;;;;;;;;;0.20;99.90;;;-0.93;100.00;95996.13;5011554;28;19932;-42
2022/04/02 01:02:01;;;;;;;;;;;0.20;99.90;;;-0.93;100.00;95993.53;5014230;28;19917;-43
2022/04/02 01:04:27;;;;;;;;;;;0.20;99.90;;;-0.82;100.00;95998.56;5011217;28;21346;-44
2022/04/02 01:06:53;;;;;;;;;;;0.20;99.90;;;-0.87;100.00;95990.00;5014425;28;19931;-42
2022/04/02 01:09:18;;;;;;;;;;;0.30;99.90;;;-0.80;100.00;95995.06;5013070;28;19986;-42
2022/04/02 01:11:45;;;;;;;;;;;0.30;99.90;;;-0.83;100.00;95996.84;5010871;28;20283;-44
2022/04/02 01:14:12;;;;;;;;;;;0.30;99.90;;;-0.80;100.00;95997.66;5016095;28;19959;-43
2022/04/02 01:16:38;;;;;;;;;;;0.30;99.90;;;-0.81;100.00;95993.38;5014045;28;20376;-46
2022/04/02 01:19:05;;;;;;;;;;;0.30;99.90;;;-0.78;100.00;96002.81;5014230;28;19963;-44
2022/04/02 01:21:31;;;;;;;;;;;0.30;99.90;;;-0.80;100.00;95997.66;5011623;28;20040;-44
2022/04/02 01:23:57;;;;;;;;;;;0.30;99.90;;;-0.77;100.00;96010.56;5012912;28;19968;-43
2022/04/02 01:26:23;;;;;;;;;;;0.30;99.90;;;-0.71;100.00;96008.75;5008779;28;20011;-43
2022/04/02 01:28:53;;;;;;;;;;;0.40;99.90;;;-0.72;100.00;96013.06;5011865;28;19928;-44
2022/04/02 01:31:21;;;;;;;;;;;0.40;99.90;;;-0.74;100.00;96014.81;5012814;28;19917;-46
2022/04/02 01:33:51;;;;;;;;;;;0.40;99.90;;;-0.81;100.00;96003.72;5012946;28;19921;-43
2022/04/02 01:36:17;;;;;;;;;;;0.40;99.90;;;-0.70;100.00;96015.63;5013483;28;19928;-47
2022/04/02 01:38:42;;;;;;;;;;;0.40;99.90;;;-0.71;100.00;96014.78;5011696;28;20335;-44
2022/04/02 01:41:08;;;;;;;;;;;0.40;99.90;;;-0.72;100.00;96013.06;5011268;28;19933;-42
2022/04/02 01:43:34;;;;;;;;;;;0.40;99.90;;;-0.62;100.00;96027.59;5011563;28;19925;-43
2022/04/02 01:46:00;;;;;;;;;;;0.40;99.90;;;-0.63;100.00;96023.31;5011283;28;20383;-44
2022/04/02 01:48:26;;;;;;;;;;;0.50;99.90;;;-0.65;100.00;96008.66;5011952;28;19960;-44
2022/04/02 01:50:52;;;;;;;;;;;0.40;99.90;;;-0.75;100.00;96001.88;5012468;28;19983;-42
2022/04/02 01:53:19;;;;;;;;;;;0.40;99.90;;;-0.71;100.00;96014.78;5008438;28;19948;-43
2022/04/02 01:55:44;;;;;;;;;;;0.40;99.90;;;-0.68;100.00;96012.16;5012145;28;19921;-45
2022/04/02 01:58:10;;;;;;;;;;;0.40;99.90;;;-0.64;100.00;96010.38;5011322;28;20503;-43
2022/04/02 02:00:36;;;;;;;;;;;0.40;99.90;;;-0.78;100.00;95998.47;5015374;28;20458;-44
2022/04/02 02:03:01;;;;;;;;;;;0.40;99.90;;;-0.73;100.00;96016.53;5013639;28;19917;-42
2022/04/02 02:05:28;;;;;;;;;;;0.40;99.90;;;-0.72;100.00;96017.38;5012044;28;19917;-43
2022/04/02 02:07:54;;;;;;;;;;;0.40;99.90;;;-0.70;100.00;96024.28;5015965;28;19971;-42
2022/04/02 02:10:20;;;;;;;;;;;0.40;99.90;;;-0.70;100.00;96020.81;5014666;28;19929;-42
2022/04/02 02:12:46;;;;;;;;;;;0.40;99.90;;;-0.75;100.00;96023.47;5016036;28;19921;-46
2022/04/02 02:15:16;;;;;;;;;;;0.40;99.90;;;-0.75;100.00;96028.66;5015078;28;19928;-43
2022/04/02 02:17:46;;;;;;;;;;;0.40;99.90;;;-0.74;100.00;96034.69;5017158;28;20026;-46
2022/04/02 02:20:13;;;;;;;;;;;0.40;99.90;;;-0.81;100.00;96034.78;5018412;28;20290;-42
2022/04/02 02:22:39;;;;;;;;;;;0.30;99.90;;;-0.73;100.00;96033.81;5017456;28;19921;-46
2022/04/02 02:25:07;;;;;;;;;;;0.30;99.90;;;-0.72;100.00;96038.09;5016361;28;20428;-46
2022/04/02 02:27:32;;;;;;;;;;;0.40;99.90;;;-0.73;100.00;96036.41;5017224;28;19948;-47
2022/04/02 02:29:58;;;;;;;;;;;0.30;99.90;;;-0.75;100.00;96043.31;5017704;28;19921;-43
2022/04/02 02:32:25;;;;;;;;;;;0.40;99.90;;;-0.70;100.00;96042.41;5015755;28;19921;-44
2022/04/02 02:37:37;;;;;;;;;;;0.40;99.90;;;-0.89;100.00;96012.47;5016585;28;20213;-43
2022/04/02 02:40:04;;;;;;;;;;;0.40;99.90;;;-0.72;100.00;96049.31;5018891;28;19940;-45
2022/04/02 02:42:31;;;;;;;;;;;0.40;99.90;;;-0.80;100.00;96052.00;5014502;28;20356;-43
2022/04/02 02:44:57;;;;;;;;;;;0.30;99.90;;;-0.79;100.00;96048.56;5017026;28;19917;-44
2022/04/02 02:47:22;;;;;;;;;;;0.30;99.90;;;-0.78;100.00;96045.06;5014246;28;19964;-46
2022/04/02 02:49:48;;;;;;;;;;;0.30;99.90;;;-0.81;100.00;96042.56;5016477;28;20344;-45
2022/04/02 02:52:14;;;;;;;;;;;0.40;99.90;;;-0.74;100.00;96048.47;5014320;28;20291;-44
2022/04/02 02:54:40;;;;;;;;;;;0.40;99.90;;;-0.73;100.00;96054.53;5015963;28;20015;-43
2022/04/02 02:57:06;;;;;;;;;;;0.30;99.90;;;-0.73;100.00;96047.59;5015251;28;19921;-41
2022/04/02 02:59:32;;;;;;;;;;;0.30;99.90;;;-0.68;100.00;96056.16;5015637;28;19924;-43
2022/04/02 03:01:57;;;;;;;;;;;0.40;99.90;;;-0.67;100.00;96059.59;5013577;28;20375;-42
2022/04/02 03:04:23;;;;;;;;;;;0.40;99.90;;;-0.72;100.00;96053.63;5015956;28;19936;-44
2022/04/02 03:06:49;;;;;;;;;;;0.40;99.90;;;-0.68;100.00;96056.16;5016678;28;19944;-45
2022/04/02 03:09:14;;;;;;;;;;;0.40;99.90;;;-0.69;100.00;96063.94;5016836;28;19975;-43
2022/04/02 03:11:40;;;;;;;;;;;0.40;99.90;;;-0.73;100.00;96065.72;5018121;28;19922;-44
2022/04/02 03:14:06;;;;;;;;;;;0.40;99.90;;;-0.73;100.00;96063.13;5018580;28;20350;-43
2022/04/02 03:16:32;;;;;;;;;;;0.30;99.90;;;-0.80;100.00;96056.34;5016461;28;19921;-46
2022/04/02 03:18:58;;;;;;;;;;;0.30;99.90;;;-0.80;100.00;96059.78;5017856;28;20007;-44
2022/04/02 03:21:24;;;;;;;;;;;0.30;99.90;;;-0.72;100.00;96072.59;5015596;28;19928;-45
2022/04/02 03:23:49;;;;;;;;;;;0.30;99.90;;;-0.76;100.00;96065.75;5016716;28;19967;-45
2022/04/02 03:26:15;;;;;;;;;;;0.30;99.90;;;-0.77;100.00;96077.00;5018427;28;20341;-43
2022/04/02 03:28:41;;;;;;;;;;;0.40;99.90;;;-0.68;100.00;96073.41;5014194;28;20016;-42
2022/04/02 03:31:07;;;;;;;;;;;0.40;99.90;;;-0.78;100.00;96070.97;5017389;28;20004;-43
2022/04/02 03:33:33;;;;;;;;;;;0.30;99.90;;;-0.68;100.00;96071.69;5014977;28;20041;-42
2022/04/02 03:35:58;;;;;;;;;;;0.30;99.90;;;-0.77;100.00;96077.00;5017260;28;20031;-44
2022/04/02 03:38:24;;;;;;;;;;;0.30;99.90;;;-0.77;100.00;96075.28;5014748;28;19947;-43
2022/04/02 03:40:50;;;;;;;;;;;0.30;99.90;;;-0.82;100.00;96081.38;5016767;28;20342;-44
2022/04/02 03:43:16;;;;;;;;;;;0.30;99.90;;;-0.82;100.00;96087.41;5015240;28;19921;-45
2022/04/02 03:45:42;;;;;;;;;;;0.30;99.90;;;-0.83;100.00;96084.84;5014317;28;19924;-39
2022/04/02 03:48:07;;;;;;;;;;;0.30;99.90;;;-0.88;100.00;96086.63;5015237;28;20604;-47
2022/04/02 03:50:33;;;;;;;;;;;0.20;99.90;;;-0.92;100.00;96082.38;5013329;28;20467;-39
2022/04/02 03:52:59;;;;;;;;;;;0.20;99.90;;;-0.95;100.00;96085.88;5012346;28;19951;-46
2022/04/02 03:55:24;;;;;;;;;;;0.20;99.90;;;-0.88;100.00;96095.28;5013935;28;19965;-46
2022/04/02 03:57:50;;;;;;;;;;;0.20;99.90;;;-0.92;100.00;96090.16;5011334;28;19925;-44
2022/04/02 04:00:16;;;;;;;;;;;0.20;99.90;;;-1.01;100.00;96093.69;5013133;28;20003;-44
2022/04/02 04:02:42;;;;;;;;;;;0.10;99.90;;;-1.02;100.00;96097.19;5012739;28;19921;-44
2022/04/02 04:05:08;;;;;;;;;;;0.10;99.90;;;-1.07;100.00;96096.38;5015526;28;19924;-46
2022/04/02 04:07:37;;;;;;;;;;;0.10;99.90;;;-1.05;100.00;96102.38;5014240;28;19925;-45
2022/04/02 04:10:03;;;;;;;;;;;0.00;99.90;;;-1.08;100.00;96107.59;5014940;28;20399;-46
2022/04/02 04:12:29;;;;;;;;;;;0.00;99.90;;;-1.18;100.00;96096.50;5014162;28;19925;-43
2022/04/02 04:14:54;;;;;;;;;;;0.00;99.90;;;-1.12;100.00;96108.50;5014178;28;20014;-43
2022/04/02 04:17:21;;;;;;;;;;;-0.10;99.90;;;-1.15;100.00;96106.78;5013148;28;20332;-46
2022/04/02 04:19:47;;;;;;;;;;;0.00;99.90;;;-1.16;100.00;96108.53;5016006;28;19925;-42
2022/04/02 04:22:13;;;;;;;;;;;-0.10;99.90;;;-1.14;100.00;96108.53;5014162;28;20307;-44
2022/04/02 04:24:39;;;;;;;;;;;0.00;99.90;;;-1.15;100.00;96114.56;5014839;28;19925;-48
2022/04/02 04:27:05;;;;;;;;;;;0.00;99.90;;;-1.19;100.00;96107.72;5015214;28;19922;-44
2022/04/02 04:29:31;;;;;;;;;;;0.00;99.90;;;-1.09;100.00;96119.69;5013526;28;19928;-43
2022/04/02 04:31:56;;;;;;;;;;;0.00;99.90;;;-1.06;100.00;96116.19;5012826;28;19921;-44
2022/04/02 04:34:22;;;;;;;;;;;0.00;99.90;;;-1.07;100.00;96125.69;5013903;28;20458;-41
2022/04/02 04:36:47;;;;;;;;;;;0.00;99.90;;;-1.12;100.00;96088.66;5013255;28;19917;-46
2022/04/02 04:39:13;;;;;;;;;;;0.10;99.90;;;-1.10;100.00;96111.94;5013623;28;19917;-43
2022/04/02 04:41:41;;;;;;;;;;;0.10;99.90;;;-1.12;100.00;96119.69;5014861;28;20381;-41
2022/04/02 04:44:06;;;;;;;;;;;0.00;99.90;;;-1.21;100.00;96115.50;5012955;28;19944;-43
2022/04/02 04:46:32;;;;;;;;;;;0.00;99.90;;;-1.12;100.00;96119.69;5013839;28;20395;-45
2022/04/02 04:48:57;;;;;;;;;;;0.00;99.90;;;-1.04;100.00;96124.78;5016464;28;20121;-43
2022/04/02 04:51:23;;;;;;;;;;;0.00;99.90;;;-1.08;100.00;96131.72;5017277;28;19967;-45
2022/04/02 04:53:52;;;;;;;;;;;0.00;99.90;;;-1.02;100.00;96136.00;5015222;28;19929;-43
2022/04/02 04:56:17;;;;;;;;;;;0.00;99.90;;;-1.13;100.00;96135.25;5017932;28;19971;-43
2022/04/02 04:58:43;;;;;;;;;;;0.00;99.90;;;-1.17;100.00;96142.19;5015868;28;19925;-39
2022/04/02 05:01:09;;;;;;;;;;;0.00;99.90;;;-1.23;100.00;96137.94;5016267;28;19964;-42
2022/04/02 05:03:35;;;;;;;;;;;-0.10;99.90;;;-1.22;100.00;96137.06;5016514;28;19959;-45
2022/04/02 05:06:01;;;;;;;;;;;-0.10;99.90;;;-1.17;100.00;96145.66;5015606;28;19982;-44
2022/04/02 05:08:27;;;;;;;;;;;-0.10;99.90;;;-1.18;100.00;96151.69;5014253;28;19918;-42
2022/04/02 05:10:53;;;;;;;;;;;-0.10;99.90;;;-1.28;100.00;96152.63;5013673;28;19925;-44
2022/04/02 05:13:19;;;;;;;;;;;-0.10;99.90;;;-1.20;100.00;96157.75;5016002;28;19917;-46
2022/04/02 05:15:45;;;;;;;;;;;-0.10;99.90;;;-1.17;100.00;96152.53;5016471;28;19929;-42
2022/04/02 05:18:11;;;;;;;;;;;-0.10;99.90;;;-1.22;100.00;96162.06;5014531;28;19921;-43
2022/04/02 05:20:38;;;;;;;;;;;-0.10;99.90;;;-1.26;100.00;96168.16;5016553;28;19921;-44
2022/04/02 05:23:05;;;;;;;;;;;-0.10;99.90;;;-1.30;100.00;96159.56;5016849;28;19925;-44
2022/04/02 05:25:33;;;;;;;;;;;-0.10;99.90;;;-1.21;100.00;96161.19;5013547;28;19925;-44
2022/04/02 05:28:04;;;;;;;;;;;-0.10;99.90;;;-1.25;100.00;96175.91;5015455;28;19925;-44
2022/04/02 05:30:34;;;;;;;;;;;-0.10;99.90;;;-1.29;100.00;96160.41;5011610;28;19925;-44
2022/04/02 05:33:00;;;;;;;;;;;-0.10;99.90;;;-1.31;100.00;96175.09;5013947;28;20205;-43
2022/04/02 05:35:25;;;;;;;;;;;-0.10;99.90;;;-1.25;100.00;96168.13;5012586;28;20004;-46
2022/04/02 05:37:51;;;;;;;;;;;-0.10;99.90;;;-1.33;100.00;96180.28;5014339;28;19921;-44
2022/04/02 05:40:17;;;;;;;;;;;-0.10;99.90;;;-1.30;100.00;96182.00;5012659;28;19921;-45
2022/04/02 05:42:43;;;;;;;;;;;-0.10;99.90;;;-1.33;100.00;96180.28;5014739;28;19925;-44
2022/04/02 05:45:09;;;;;;;;;;;-0.10;99.90;;;-1.14;100.00;96180.13;5021276;28;20007;-44
2022/04/02 05:47:42;;;;;;;;;;;-0.10;99.90;;;-1.19;100.00;96191.34;5021906;28;19925;-44
2022/04/02 05:50:09;;;;;;;;;;;-0.10;99.90;;;-1.26;100.00;96178.50;5019259;28;20283;-43
2022/04/02 05:52:34;;;;;;;;;;;-0.10;99.90;;;-1.07;100.00;96190.38;5019302;28;19925;-41
2022/04/02 05:55:00;;;;;;;;;;;0.00;99.90;;;-1.14;100.00;96199.06;5020585;28;19917;-41
2022/04/02 05:57:26;;;;;;;;;;;0.00;99.90;;;-1.12;100.00;96204.25;5020153;28;19971;-45
2022/04/02 05:59:51;;;;;;;;;;;0.00;99.90;;;-1.04;100.00;96198.13;5018420;28;20503;-43
2022/04/02 06:02:17;;;;;;;;;;;0.10;99.90;;;-1.01;100.00;96194.63;5021142;28;20389;-42
2022/04/02 06:04:43;;;;;;;;;;;0.10;99.90;;;-0.97;100.00;96202.34;5017332;28;20225;-42
2022/04/02 06:07:08;;;;;;;;;;;0.10;99.90;;;-1.04;100.00;96205.88;5020862;28;19983;-46
2022/04/02 06:09:34;;;;;;;;;;;0.10;99.90;;;-1.02;100.00;96201.53;5017205;28;19921;-44
2022/04/02 06:12:01;;;;;;;;;;;0.10;99.90;;;-1.08;100.00;96205.91;5017501;28;19925;-42
2022/04/02 06:14:27;;;;;;;;;;;0.10;99.90;;;-0.96;100.00;96201.47;5020262;28;19925;-46
2022/04/02 06:16:52;;;;;;;;;;;0.10;99.90;;;-0.94;100.00;96213.53;5017872;28;21006;-44
2022/04/02 06:19:19;;;;;;;;;;;0.10;99.90;;;-0.89;100.00;96209.16;5022089;28;19948;-44
2022/04/02 06:21:45;;;;;;;;;;;0.20;99.90;;;-0.94;100.00;96216.13;5018135;28;19929;-43
2022/04/02 06:24:11;;;;;;;;;;;0.20;99.90;;;-0.94;100.00;96214.38;5018633;28;19918;-43
2022/04/02 06:26:36;;;;;;;;;;;0.20;99.90;;;-0.98;100.00;96226.50;5017729;28;19921;-44
2022/04/02 06:29:02;;;;;;;;;;;0.20;99.90;;;-0.88;100.00;96234.16;5020655;28;20437;-44
2022/04/02 06:31:27;;;;;;;;;;;0.30;99.90;;;-0.84;100.00;96235.88;5019071;28;19967;-44
2022/04/02 06:33:53;;;;;;;;;;;0.30;99.90;;;-0.83;100.00;96230.66;5020966;28;19921;-44
2022/04/02 06:36:19;;;;;;;;;;;0.30;99.90;;;-0.71;100.00;96229.66;5019527;28;19925;-43
2022/04/02 06:38:45;;;;;;;;;;;0.40;99.90;;;-0.74;100.00;96234.88;5017866;28;20305;-42
2022/04/02 06:41:10;;;;;;;;;;;0.40;99.90;;;-0.73;100.00;96241.78;5021274;28;19917;-41
2022/04/02 06:43:36;;;;;;;;;;;0.40;99.90;;;-0.63;100.00;96247.69;5019933;28;19921;-46
2022/04/02 06:46:02;;;;;;;;;;;0.40;99.90;;;-0.70;100.00;96239.16;5020305;28;19971;-40
2022/04/02 06:48:27;;;;;;;;;;;0.50;99.90;;;-0.65;100.00;96245.13;5020954;28;19967;-44
2022/04/02 06:50:53;;;;;;;;;;;0.50;99.90;;;-0.63;100.00;96240.81;5018741;28;19929;-43
2022/04/02 06:53:19;;;;;;;;;;;0.50;99.90;;;-0.60;100.00;96255.44;5019024;28;19956;-46
2022/04/02 06:55:45;;;;;;;;;;;0.60;99.90;;;-0.64;100.00;96254.63;5014736;28;20621;-44
2022/04/02 06:58:24;;;;;;;;;;;0.50;99.90;;;-0.54;100.00;96255.34;5015354;28;20301;-42
2022/04/02 07:00:50;;;;;;;;;;;0.50;99.90;;;-0.54;100.00;96260.53;5017108;28;19932;-45
2022/04/02 07:03:15;;;;;;;;;;;0.60;99.90;;;-0.60;100.00;96256.28;5015972;28;19928;-41
2022/04/02 07:05:41;;;;;;;;;;;0.60;99.90;;;-0.54;100.00;96267.44;5016093;28;20267;-40
2022/04/02 07:08:07;;;;;;;;;;;0.60;99.90;;;-0.46;100.00;96269.09;5016189;28;20349;-44
2022/04/02 07:10:32;;;;;;;;;;;0.70;99.90;;;-0.34;100.00;96275.88;5016595;28;19972;-43
2022/04/02 07:12:59;;;;;;;;;;;0.70;99.90;;;-0.37;100.00;96281.06;5017265;28;19917;-46
2022/04/02 07:15:24;;;;;;;;;;;0.70;99.90;;;-0.50;100.00;96279.47;5016237;28;19928;-43
2022/04/02 07:17:50;;;;;;;;;;;0.70;99.90;;;-0.59;100.00;96277.88;5012865;28;20283;-41
2022/04/02 07:20:18;;;;;;;;;;;0.60;99.90;;;-0.56;100.00;96293.38;5014614;28;19965;-41
2022/04/02 07:22:44;;;;;;;;;;;0.60;99.90;;;-0.54;100.00;96299.38;5014851;28;19921;-39
2022/04/02 07:25:09;;;;;;;;;;;0.60;99.90;;;-0.51;100.00;96301.09;5014698;28;20463;-42
2022/04/02 07:27:38;;;;;;;;;;;0.60;99.90;;;-0.58;100.00;96306.31;5015566;28;19921;-41
2022/04/02 07:30:04;;;;;;;;;;;0.60;99.90;;;-0.48;100.00;96311.44;5013975;28;19940;-42
2022/04/02 07:32:30;;;;;;;;;;;0.60;99.90;;;-0.56;100.00;96321.84;5013875;28;20449;-41
2022/04/02 07:34:56;;;;;;;;;;;0.60;99.90;;;-0.48;100.00;96326.97;5017849;28;19925;-41
2022/04/02 07:37:43;;;;;;;;;;;0.60;99.90;;;-0.54;100.00;96333.03;5015277;28;20001;-42
2022/04/02 07:40:18;;;;;;;;;;;0.60;99.90;;;-0.63;100.00;96333.16;5015859;28;19929;-41
2022/04/02 07:42:48;;;;;;;;;;;0.60;99.90;;;-0.63;100.00;96339.19;5027405;28;19942;-40
2022/04/02 07:45:19;;;;;;;;;;;0.50;99.90;;;-0.58;100.00;96342.56;5015403;28;19925;-43
2022/04/02 07:47:55;;;;;;;;;;;0.60;99.90;;;-0.46;100.00;96345.94;5015652;28;19971;-41
2022/04/02 07:50:23;;;;;;;;;;;0.60;99.90;;;-0.52;100.00;96343.41;5018548;28;19925;-41
2022/04/02 07:52:51;;;;;;;;;;;0.60;99.90;;;-0.72;100.00;96313.38;5014630;28;20157;-42
2022/04/02 07:55:17;;;;;;;;;;;0.60;99.90;;;-0.44;100.00;96349.38;5014449;28;19921;-42
2022/04/02 07:57:45;;;;;;;;;;;0.60;99.90;;;-0.41;100.00;96350.19;5014041;28;19927;-40
2022/04/02 08:00:13;;;;;;;;;;;0.70;99.90;;;-0.44;100.00;96355.41;5012012;28;19943;-43
2022/04/02 08:02:43;;;;;;;;;;;0.80;99.90;;;-0.30;100.00;96355.25;5016412;28;20023;-43
2022/04/02 08:05:11;;;;;;;;;;;0.80;99.90;;;-0.27;100.00;96365.59;5014354;28;19917;-41
2022/04/02 08:07:49;;;;;;;;;;;0.90;99.90;;;-0.42;100.00;96368.34;5012770;28;19921;-42
2022/04/02 08:10:23;;;;;;;;;;;0.80;99.90;;;-0.41;100.00;96363.16;5012090;28;20224;-40
2022/04/02 08:12:49;;;;;;;;;;;0.80;99.90;;;-0.52;100.00;96372.75;5016337;28;20416;-42
2022/04/02 08:15:17;;;;;;;;;;;0.70;99.90;;;-0.53;100.00;96375.38;5025152;28;19932;-42
2022/04/02 08:17:46;;;;;;;;;;;0.70;99.90;;;-0.61;100.00;96384.06;5014642;28;20172;-42
2022/04/02 08:20:15;;;;;;;;;;;0.70;99.90;;;-0.68;100.00;96386.69;5015410;28;19929;-40
2022/04/02 08:22:44;;;;;;;;;;;0.60;99.90;;;-0.66;100.00;96385.84;5012161;28;19921;-41
2022/04/02 08:25:11;;;;;;;;;;;0.60;99.90;;;-0.64;100.00;96381.50;5013089;28;20378;-40
2022/04/02 08:28:10;;;;;;;;;;;0.60;99.90;;;-0.62;100.00;96397.03;5010868;28;19979;-42
2022/04/02 08:30:43;;;;;;;;;;;0.60;99.90;;;-0.56;100.00;96398.69;5013499;28;20260;-40
2022/04/02 08:33:28;;;;;;;;;;;0.60;99.90;;;-0.48;100.00;96409.84;5013795;28;19921;-41
2022/04/02 08:36:03;;;;;;;;;;;0.70;99.90;;;-0.45;100.00;96409.81;5011271;28;19921;-42
2022/04/02 08:39:04;;;;;;;;;;;0.70;99.90;;;-0.41;100.00;96414.09;5012107;28;20135;-43
2022/04/02 08:42:02;;;;;;;;;;;0.80;99.90;;;-0.43;100.00;96415.81;5014055;28;20458;-43
2022/04/02 08:44:58;;;;;;;;;;;0.70;99.90;;;-0.47;100.00;96416.72;5018893;28;19925;-43
2022/04/02 08:48:01;;;;;;;;;;;0.70;99.90;;;-0.30;100.00;96417.44;5013958;28;19921;-42
2022/04/02 08:50:33;;;;;;;;;;;0.80;99.90;;;-0.43;100.00;96392.50;5016833;28;20445;-42
2022/04/02 08:53:45;;;;;;;;;;;0.90;99.90;;;-0.29;100.00;96421.72;5011131;28;19925;-45
2022/04/02 08:56:17;;;;;;;;;;;0.90;99.90;;;-0.34;100.00;96439.06;4999997;28;19925;-40
2022/04/02 08:58:58;;;;;;;;;;;0.90;99.90;;;-0.23;100.00;96445.00;5010118;28;20246;-43
2022/04/02 09:01:27;;;;;;;;;;;0.90;99.90;;;-0.17;100.00;96456.19;5012312;28;19964;-43
2022/04/02 09:04:12;;;;;;;;;;;1.00;99.90;;;0.02;100.00;96446.47;5013590;28;19921;-45
2022/04/02 09:07:06;;;;;;;;;;;1.10;99.90;;;0.02;100.00;96449.06;5009232;28;20121;-43
2022/04/02 09:09:48;;;;;;;;;;;1.30;99.90;;;0.12;100.00;96454.13;5010786;28;20208;-43
2022/04/02 09:12:31;;;;;;;;;;;1.30;99.90;;;0.19;100.00;96453.19;5011864;28;20334;-43
2022/04/02 09:15:07;;;;;;;;;;;1.40;99.90;;;0.29;100.00;96460.91;5007632;28;19917;-42
2022/04/02 09:17:49;;;;;;;;;;;1.50;99.90;;;0.28;100.00;96464.34;5010693;28;20015;-43
2022/04/02 09:20:38;;;;;;;;;;;1.50;99.90;;;0.16;100.00;96480.88;5015134;28;20027;-45
2022/04/02 09:23:41;;;;;;;;;;;1.50;99.90;;;0.23;100.00;96484.28;5009901;28;19921;-41
2022/04/02 09:26:20;;;;;;;;;;;1.40;99.90;;;0.27;100.00;96473.00;5013873;28;19952;-40
2022/04/02 09:29:10;;;;;;;;;;;1.50;99.90;;;0.37;100.00;96482.41;5010860;28;19928;-44
2022/04/02 09:32:00;;;;;;;;;;;1.50;99.90;;;0.50;100.00;96485.69;5049473;22;19959;-86
2022/04/02 09:35:03;;;;;;;;;;;1.60;99.90;;;0.50;100.00;96472.72;5071354;28;19928;-86
2022/04/02 09:37:28;;;;;;;;;;;1.70;99.90;;;0.37;100.00;96496.22;5050292;28;19973;-85
2022/04/02 09:40:05;;;;;;;;;;;1.60;99.90;;;0.08;100.00;96483.56;5078553;28;21643;-86
2022/04/02 09:42:45;;;;;;;;;;;1.40;99.90;;;-0.10;100.00;96460.44;5074310;28;19931;-86
2022/04/02 09:45:14;;;;;;;;;;;1.30;99.90;;;0.14;100.00;96490.41;5059942;28;19920;-86
2022/04/02 09:47:53;;;;;;;;;;;1.30;99.90;;;-0.24;100.00;96445.88;5074635;28;19920;-87
2022/04/02 09:50:21;;;;;;;;;;;1.30;99.90;;;-0.27;100.00;96477.00;5077391;28;19924;-86
2022/04/02 09:53:05;;;;;;;;;;;1.20;99.90;;;-0.65;100.00;96412.56;5055095;28;19920;-86
2022/04/02 09:55:52;;;;;;;;;;;1.10;99.90;;;-0.52;100.00;96480.66;5077192;28;19955;-87
2022/04/02 09:58:40;;;;;;;;;;;1.00;99.90;;;-0.40;100.00;96503.88;5098367;27;19973;-86
2022/04/02 10:01:13;;;;;;;;;;;0.90;99.90;;;-0.64;100.00;96472.13;5057485;28;20575;-86
2022/04/02 10:04:02;;;;;;;;;;;0.90;99.90;;;-0.89;100.00;96413.66;5072702;28;19937;-86
2022/04/02 10:06:42;;;;;;;;;;;0.90;99.90;;;-0.43;100.00;96498.72;5071975;28;19960;-86
2022/04/02 10:09:11;;;;;;;;;;;0.90;99.90;;;-0.15;100.00;96514.03;5055225;28;19981;-86
2022/04/02 10:11:55;;;;;;;;;;;1.00;99.90;;;0.05;100.00;96498.28;5069897;28;20010;-86
2022/04/02 10:14:24;;;;;;;;;;;1.10;99.90;;;-0.14;100.00;96485.53;5074328;28;20800;-85
2022/04/02 10:17:01;;;;;;;;;;;1.20;99.90;;;0.11;100.00;96519.84;5057471;28;19927;-86
2022/04/02 10:19:35;;;;;;;;;;;1.30;99.90;;;0.10;100.00;96507.75;5076138;28;19927;-86
2022/04/02 10:22:06;;;;;;;;;;;1.40;99.90;;;0.02;100.00;96494.00;5056381;28;20281;-86
2022/04/02 10:24:37;;;;;;;;;;;1.40;99.90;;;0.41;100.00;96516.94;5077805;28;19919;-86
2022/04/02 10:27:04;;;;;;;;;;;1.60;99.90;;;0.50;100.00;96525.50;5076136;28;19924;-86
2022/04/02 10:29:58;;;;;;;;;;;1.70;99.90;;;0.60;100.00;96520.19;5059048;28;20036;-86
2022/04/02 10:32:48;;;;;;;;;;;1.80;99.90;;;0.09;100.00;96511.22;5075281;28;19930;-86
2022/04/02 10:35:14;;;;;;;;;;;1.70;99.90;;;0.32;100.00;96495.44;5078425;28;19963;-86
2022/04/02 10:38:02;;;;;;;;;;;1.70;99.90;;;0.31;100.00;96539.53;5064216;28;20444;-86
2022/04/02 10:40:29;;;;;;;;;;;1.70;99.90;;;0.34;100.00;96542.06;5074653;28;20290;-86
2022/04/02 10:43:02;;;;;;;;;;;1.60;99.90;;;0.26;100.00;96520.56;5059722;28;20353;-86
2022/04/02 10:45:29;;;;;;;;;;;1.60;99.90;;;0.23;100.00;96546.53;5078500;28;19924;-85
2022/04/02 10:48:08;;;;;;;;;;;1.50;99.90;;;0.15;100.00;96521.53;5073364;28;19935;-86
2022/04/02 10:50:35;;;;;;;;;;;1.50;99.90;;;0.27;100.00;96530.94;5067889;28;19921;-86
2022/04/02 10:53:02;;;;;;;;;;;1.50;99.90;;;0.17;100.00;96532.72;5069236;28;20852;-86
2022/04/02 10:55:29;;;;;;;;;;;1.50;99.90;;;-0.06;100.00;96503.59;5051425;28;19939;-86
2022/04/02 10:58:02;;;;;;;;;;;1.40;99.90;;;-0.33;100.00;96490.00;5056727;28;19916;-86
2022/04/02 11:00:29;;;;;;;;;;;1.40;99.90;;;0.01;100.00;96553.66;5077535;28;19924;-86
2022/04/02 11:03:05;;;;;;;;;;;1.30;99.90;;;-0.02;100.00;96531.19;5056100;28;19916;-86
2022/04/02 11:05:35;;;;;;;;;;;1.20;99.90;;;0.08;100.00;96540.59;5064893;28;20302;-86
2022/04/02 11:08:06;;;;;;;;;;;1.30;99.90;;;-0.05;100.00;96513.94;5076816;28;19947;-85
2022/04/02 11:10:35;;;;;;;;;;;1.30;99.90;;;0.03;100.00;96525.97;5060565;28;19924;-86
2022/04/02 11:13:04;;;;;;;;;;;1.40;99.90;;;0.07;100.00;96512.09;5057478;28;20360;-86
2022/04/02 11:15:31;;;;;;;;;;;1.40;99.90;;;-0.06;100.00;96499.25;5074593;28;20006;-85
2022/04/02 11:17:59;;;;;;;;;;;1.50;99.90;;;0.28;100.00;96557.72;5061650;28;19923;-86
2022/04/02 11:20:29;;;;;;;;;;;1.40;99.90;;;0.20;100.00;96565.56;5060697;28;20388;-86
2022/04/02 11:22:56;;;;;;;;;;;1.40;99.90;;;0.25;100.00;96570.69;5069495;28;20224;-85
2022/04/02 11:25:25;;;;;;;;;;;1.40;99.90;;;-0.20;100.00;96507.19;5072373;28;19920;-85
2022/04/02 11:27:58;;;;;;;;;;;1.40;99.90;;;0.07;100.00;96559.66;5077880;28;19959;-86
2022/04/02 11:30:29;;;;;;;;;;;1.30;99.90;;;-0.03;100.00;96552.81;5059136;28;20725;-86
2022/04/02 11:33:07;;;;;;;;;;;1.30;99.90;;;-0.15;100.00;96527.00;5072464;28;19924;-86